createdAt,value
2023-01-04T00:01:23.165Z,101588.56
2023-01-04T00:03:50.874Z,101586.03
2023-01-04T00:06:19.190Z,101566.41
2023-01-04T00:08:45.940Z,101581.88
2023-01-04T00:11:20.608Z,101572.22
2023-01-04T00:13:50.614Z,101569.66
2023-01-04T00:16:22.537Z,101565.22
2023-01-04T00:18:51.572Z,101564.28
2023-01-04T00:21:27.426Z,101547.28
2023-01-04T00:23:58.242Z,101551.75
2023-01-04T00:26:30.238Z,101550.78
2023-01-04T00:29:05.677Z,101541.81
2023-01-04T00:31:34.530Z,101533.84
2023-01-04T00:34:04.930Z,101534.84
2023-01-04T00:36:33.602Z,101526.78
2023-01-04T00:39:09.870Z,101524.09
2023-01-04T00:42:02.637Z,101531.06
2023-01-04T00:44:30.756Z,101493.41
2023-01-04T00:46:59.728Z,101496.94
2023-01-04T00:49:28.939Z,101495.19
2023-01-04T00:51:56.517Z,101496.03
2023-01-04T00:54:24.059Z,101487.03
2023-01-04T00:56:51.375Z,101482.53
2023-01-04T00:59:21.915Z,101477.16
2023-01-04T01:01:49.346Z,101484.13
2023-01-04T01:04:20.857Z,101475.13
2023-01-04T01:06:48.984Z,101477.75
2023-01-04T01:09:16.930Z,101462.34
2023-01-04T01:11:44.166Z,101482.03
2023-01-04T01:14:18.881Z,101455.84
2023-01-04T01:16:56.590Z,101465.75
2023-01-04T01:19:28.751Z,101451.41
2023-01-04T01:21:57.412Z,101436.91
2023-01-04T01:24:24.388Z,101464.66
2023-01-04T01:26:51.375Z,101442.09
2023-01-04T01:29:18.256Z,101440.06
2023-01-04T01:31:45.115Z,101441.81
2023-01-04T01:34:12.082Z,101448.06
2023-01-04T01:36:38.928Z,101439.75
2023-01-04T01:39:06.774Z,101435.19
2023-01-04T01:41:35.949Z,101428.00
2023-01-04T01:44:43.103Z,101423.41
2023-01-04T01:47:25.009Z,101416.97
2023-01-04T01:49:54.536Z,101423.16
2023-01-04T01:52:31.618Z,101434.75
2023-01-04T01:55:06.733Z,101426.66
2023-01-04T01:57:37.796Z,101421.09
2023-01-04T02:00:12.584Z,101423.72
2023-01-04T02:03:10.287Z,101424.59
2023-01-04T02:05:38.122Z,101424.44
2023-01-04T02:08:06.917Z,101413.69
2023-01-04T02:10:34.025Z,101423.41
2023-01-04T02:13:09.934Z,101417.16
2023-01-04T02:16:13.534Z,101427.94
2023-01-04T02:18:59.334Z,101433.25
2023-01-04T02:22:02.114Z,101414.25
2023-01-04T02:25:02.409Z,101417.03
2023-01-04T02:27:51.490Z,101418.59
2023-01-04T02:31:06.163Z,101405.06
2023-01-04T02:34:05.470Z,101396.06
2023-01-04T02:36:58.739Z,101398.66
2023-01-04T02:39:55.519Z,101385.91
2023-01-04T02:43:12.200Z,101377.69
2023-01-04T02:45:58.011Z,101374.91
2023-01-04T02:48:43.333Z,101364.03
2023-01-04T02:51:31.931Z,101372.09
2023-01-04T02:54:25.193Z,101358.31
2023-01-04T02:57:40.600Z,101342.94
2023-01-04T03:00:13.150Z,101352.78
2023-01-04T03:03:21.580Z,101350.69
2023-01-04T03:06:16.199Z,101345.16
2023-01-04T03:09:05.631Z,101341.34
2023-01-04T03:12:06.577Z,101343.09
2023-01-04T03:14:50.557Z,101348.13
2023-01-04T03:17:24.140Z,101328.16
2023-01-04T03:19:56.853Z,101326.28
2023-01-04T03:22:55.574Z,101309.94
2023-01-04T03:25:53.923Z,101311.84
2023-01-04T03:28:46.799Z,101304.53
2023-01-04T03:31:51.620Z,101309.78
2023-01-04T03:34:37.586Z,101312.31
2023-01-04T03:37:23.335Z,101297.94
2023-01-04T03:40:34.204Z,101312.19
2023-01-04T03:43:38.196Z,101302.13
2023-01-04T03:46:35.164Z,101301.97
2023-01-04T03:49:38.872Z,101317.81
2023-01-04T03:52:09.373Z,101287.19
2023-01-04T03:54:45.026Z,101276.34
2023-01-04T03:57:14.976Z,101274.16
2023-01-04T03:59:49.307Z,101284.75
2023-01-04T04:02:19.459Z,101266.66
2023-01-04T04:05:05.295Z,101271.91
2023-01-04T04:07:50.580Z,101272.69
2023-01-04T04:10:17.479Z,101286.00
2023-01-04T04:12:44.469Z,101287.53
2023-01-04T04:15:12.029Z,101280.06
2023-01-04T04:17:38.816Z,101290.69
2023-01-04T04:20:06.561Z,101274.41
2023-01-04T04:22:33.675Z,101262.50
2023-01-04T04:25:00.461Z,101255.28
2023-01-04T04:27:27.235Z,101264.13
2023-01-04T04:29:54.035Z,101264.13
2023-01-04T04:32:20.802Z,101261.59
2023-01-04T04:34:47.561Z,101249.97
2023-01-04T04:37:15.153Z,101252.56
2023-01-04T04:39:41.978Z,101243.50
2023-01-04T04:42:09.430Z,101231.00
2023-01-04T04:44:36.467Z,101236.41
2023-01-04T04:47:03.477Z,101229.09
2023-01-04T04:49:30.329Z,101225.44
2023-01-04T04:51:57.405Z,101224.47
2023-01-04T04:54:24.467Z,101227.00
2023-01-04T04:56:51.428Z,101234.09
2023-01-04T04:59:18.354Z,101234.09
2023-01-04T05:01:45.460Z,101228.72
2023-01-04T05:04:17.158Z,101237.63
2023-01-04T05:06:45.141Z,101217.59
2023-01-04T05:09:16.552Z,101215.66
2023-01-04T05:12:01.797Z,101218.28
2023-01-04T05:14:28.768Z,101230.69
2023-01-04T05:16:55.658Z,101222.44
2023-01-04T05:19:22.459Z,101212.25
2023-01-04T05:21:49.210Z,101199.31
2023-01-04T05:24:16.020Z,101206.28
2023-01-04T05:26:42.757Z,101192.81
2023-01-04T05:29:29.524Z,101187.41
2023-01-04T05:31:56.387Z,101188.94
2023-01-04T05:34:23.183Z,101184.22
2023-01-04T05:36:49.955Z,101195.72
2023-01-04T05:39:16.708Z,101172.38
2023-01-04T05:42:02.194Z,101167.97
2023-01-04T05:44:28.955Z,101164.28
2023-01-04T05:46:56.023Z,101152.53
2023-01-04T05:49:22.749Z,101162.25
2023-01-04T05:51:49.518Z,101164.09
2023-01-04T05:54:21.154Z,101155.16
2023-01-04T05:56:48.434Z,101171.34
2023-01-04T05:59:16.175Z,101161.41
2023-01-04T06:01:43.171Z,101157.94
2023-01-04T06:04:10.264Z,101157.94
2023-01-04T06:06:37.079Z,101149.84
2023-01-04T06:09:04.194Z,101152.53
2023-01-04T06:11:30.960Z,101139.81
2023-01-04T06:13:57.910Z,101139.63
2023-01-04T06:16:24.753Z,101152.06
2023-01-04T06:18:51.670Z,101144.81
2023-01-04T06:21:18.566Z,101151.56
2023-01-04T06:23:45.528Z,101156.88
2023-01-04T06:26:12.429Z,101139.72
2023-01-04T06:28:41.207Z,101149.63
2023-01-04T06:31:11.112Z,101146.16
2023-01-04T06:33:38.734Z,101148.78
2023-01-04T06:36:06.760Z,101156.03
2023-01-04T06:38:34.595Z,101142.31
2023-01-04T06:41:01.474Z,101143.28
2023-01-04T06:43:28.420Z,101153.09
2023-01-04T06:45:55.396Z,101164.59
2023-01-04T06:48:22.234Z,101159.97
2023-01-04T06:50:49.010Z,101160.84
2023-01-04T06:53:15.766Z,101156.22
2023-01-04T06:55:45.000Z,101154.28
2023-01-04T06:58:12.015Z,101167.69
2023-01-04T07:00:39.141Z,101161.22
2023-01-04T07:03:14.202Z,101153.81
2023-01-04T07:05:44.208Z,101148.91
2023-01-04T07:08:12.849Z,101162.00
2023-01-04T07:10:40.224Z,101166.38
2023-01-04T07:13:08.634Z,101157.28
2023-01-04T07:15:39.637Z,101147.38
2023-01-04T07:18:09.825Z,101139.94
2023-01-04T07:20:38.668Z,101151.28
2023-01-04T07:23:07.227Z,101135.38
2023-01-04T07:25:34.224Z,101125.91
2023-01-04T07:28:01.866Z,101123.72
2023-01-04T07:30:29.026Z,101130.47
2023-01-04T07:32:56.895Z,101110.41
2023-01-04T07:35:24.620Z,101121.97
2023-01-04T07:37:57.930Z,101101.13
2023-01-04T07:40:26.464Z,101112.59
2023-01-04T07:42:58.851Z,101108.03
2023-01-04T07:45:26.558Z,101096.59
2023-01-04T07:47:53.825Z,101090.91
2023-01-04T07:50:20.599Z,101099.69
2023-01-04T07:52:47.416Z,101089.50
2023-01-04T07:55:14.211Z,101089.28
2023-01-04T07:57:40.985Z,101073.72
2023-01-04T08:00:08.970Z,101082.59
2023-01-04T08:02:38.926Z,101066.16
2023-01-04T08:05:07.377Z,101075.13
2023-01-04T08:07:34.160Z,101064.22
2023-01-04T08:10:01.665Z,101082.19
2023-01-04T08:12:28.391Z,101080.44
2023-01-04T08:14:55.448Z,101060.31
2023-01-04T08:17:22.169Z,101075.25
2023-01-04T08:19:48.893Z,101077.09
2023-01-04T08:22:15.709Z,101072.69
2023-01-04T08:24:42.733Z,101074.19
2023-01-04T08:27:11.055Z,101072.25
2023-01-04T08:29:38.643Z,101089.13
2023-01-04T08:32:06.065Z,101091.72
2023-01-04T08:34:32.903Z,101092.50
2023-01-04T08:36:59.763Z,101084.16
2023-01-04T08:39:29.445Z,101090.34
2023-01-04T08:41:58.746Z,101102.31
2023-01-04T08:44:28.149Z,101067.16
2023-01-04T08:46:55.596Z,101084.94
2023-01-04T08:49:22.855Z,101090.84
2023-01-04T08:51:50.063Z,101090.84
2023-01-04T08:54:18.151Z,101098.88
2023-01-04T08:56:44.988Z,101104.63
2023-01-04T08:59:13.272Z,101095.19
2023-01-04T09:01:41.174Z,101126.13
2023-01-04T09:04:08.530Z,101101.66
2023-01-04T09:06:36.813Z,101095.41
2023-01-04T09:09:03.661Z,101073.56
2023-01-04T09:11:30.603Z,101094.75
2023-01-04T09:14:07.473Z,101099.97
2023-01-04T09:16:36.644Z,101087.19
2023-01-04T09:19:04.079Z,101075.41
2023-01-04T09:21:31.015Z,101076.38
2023-01-04T09:23:59.013Z,101083.94
2023-01-04T09:26:26.406Z,101091.72
2023-01-04T09:28:56.244Z,101093.03
2023-01-04T09:31:29.315Z,101081.56
2023-01-04T09:34:15.885Z,101092.56
2023-01-04T09:36:45.283Z,101094.06
2023-01-04T09:39:20.916Z,101084.34
2023-01-04T09:42:00.305Z,101088.44
2023-01-04T09:45:23.109Z,101077.81
2023-01-04T09:47:46.608Z,101084.31
2023-01-04T09:50:32.130Z,101088.06
2023-01-04T09:53:24.376Z,101083.66
2023-01-04T09:55:56.956Z,101082.00
2023-01-04T09:58:35.014Z,101088.31
2023-01-04T10:01:29.183Z,101081.91
2023-01-04T10:04:14.211Z,101096.41
2023-01-04T10:06:41.396Z,101090.13
2023-01-04T10:09:14.120Z,101100.16
2023-01-04T10:12:05.561Z,101079.63
2023-01-04T10:15:09.395Z,101084.94
2023-01-04T10:21:46.176Z,101076.94
2023-01-04T10:24:18.559Z,101082.53
2023-01-04T10:26:51.671Z,101067.97
2023-01-04T10:29:33.542Z,101086.00
2023-01-04T10:32:35.791Z,101086.88
2023-01-04T10:35:20.587Z,101096.81
2023-01-04T10:37:54.276Z,101079.84
2023-01-04T10:40:21.378Z,101090.44
2023-01-04T10:43:07.212Z,101086.00
2023-01-04T10:46:04.382Z,101076.94
2023-01-04T10:48:43.409Z,101069.78
2023-01-04T10:51:12.703Z,101066.13
2023-01-04T10:54:06.195Z,101062.66
2023-01-04T10:56:51.411Z,101069.78
2023-01-04T10:59:23.952Z,101074.22
2023-01-04T11:02:02.357Z,101063.41
2023-01-04T11:04:37.406Z,101080.38
2023-01-04T11:07:16.158Z,101073.03
2023-01-04T11:09:55.588Z,101074.97
2023-01-04T11:12:23.890Z,101079.44
2023-01-04T11:14:52.114Z,101081.16
2023-01-04T11:17:22.812Z,101094.66
2023-01-04T11:19:49.997Z,101061.28
2023-01-04T11:22:34.339Z,101071.09
2023-01-04T11:25:34.625Z,101073.69
2023-01-04T11:28:02.926Z,101064.72
2023-01-04T11:30:50.038Z,101071.09
2023-01-04T11:33:23.748Z,101063.00
2023-01-04T11:35:58.890Z,101073.03
2023-01-04T11:38:30.698Z,101062.13
2023-01-04T11:41:18.196Z,101024.19
2023-01-04T11:44:06.037Z,101066.69
2023-01-04T11:46:35.033Z,101058.56
2023-01-04T11:49:01.839Z,101069.38
2023-01-04T11:51:36.609Z,101070.34
2023-01-04T11:54:19.793Z,101056.81
2023-01-04T11:57:11.988Z,101069.38
2023-01-04T11:59:39.491Z,101078.44
2023-01-04T12:05:29.645Z,101072.84
2023-01-04T12:07:59.456Z,101063.75
2023-01-04T12:10:28.272Z,101066.44
2023-01-04T12:12:59.804Z,101067.22
2023-01-04T12:15:49.789Z,101074.34
2023-01-04T12:18:30.030Z,101072.66
2023-01-04T12:20:57.838Z,101079.00
2023-01-04T12:23:24.993Z,101052.72
2023-01-04T12:25:54.001Z,101077.81
2023-01-04T12:28:46.576Z,101076.75
2023-01-04T12:31:20.253Z,101075.78
2023-01-04T12:33:51.531Z,101068.31
2023-01-04T12:36:43.180Z,101056.53
2023-01-04T12:39:13.506Z,101057.19
2023-01-04T12:41:40.276Z,101046.28
2023-01-04T12:44:52.461Z,101073.09
2023-01-04T12:47:37.805Z,101055.91
2023-01-04T12:50:23.286Z,101048.22
2023-01-04T12:55:44.749Z,101053.41
2023-01-04T12:58:58.043Z,101058.38
2023-01-04T13:01:26.885Z,101044.44
2023-01-04T13:04:05.572Z,101037.63
2023-01-04T13:06:45.747Z,101037.19
2023-01-04T13:09:33.374Z,101043.13
2023-01-04T13:12:20.273Z,101057.44
2023-01-04T13:14:59.163Z,101041.97
2023-01-04T13:17:28.056Z,101036.75
2023-01-04T13:19:55.420Z,101044.09
2023-01-04T13:22:29.755Z,101046.78
2023-01-04T13:25:00.406Z,101044.09
2023-01-04T13:27:27.926Z,101063.94
2023-01-04T13:29:55.271Z,101062.97
2023-01-04T13:32:29.134Z,101067.41
2023-01-04T13:35:17.648Z,101063.63
2023-01-04T13:37:47.746Z,101073.47
2023-01-04T13:40:17.346Z,101072.47
2023-01-04T13:42:56.724Z,101055.38
2023-01-04T13:46:05.535Z,101049.97
2023-01-04T13:48:40.593Z,101063.50
2023-01-04T13:51:23.858Z,101061.66
2023-01-04T13:54:00.443Z,101056.03
2023-01-04T13:56:31.949Z,101048.66
2023-01-04T13:58:59.685Z,101053.22
2023-01-04T14:01:45.402Z,101047.47
2023-01-04T14:04:27.651Z,101042.78
2023-01-04T14:06:59.196Z,101029.03
2023-01-04T14:09:32.736Z,101018.97
2023-01-04T14:12:08.688Z,101018.75
2023-01-04T14:14:50.841Z,101021.09
2023-01-04T14:17:48.948Z,101025.34
2023-01-04T14:20:15.715Z,101017.22
2023-01-04T14:22:50.512Z,101012.28
2023-01-04T14:25:48.250Z,101017.38
2023-01-04T14:28:30.255Z,101015.44
2023-01-04T14:30:59.991Z,101008.31
2023-01-04T14:33:36.264Z,101012.59
2023-01-04T14:36:10.277Z,101008.03
2023-01-04T14:38:49.844Z,101018.88
2023-01-04T14:41:31.484Z,101011.75
2023-01-04T14:44:01.112Z,101025.28
2023-01-04T14:46:32.078Z,101033.41
2023-01-04T14:48:59.694Z,101031.56
2023-01-04T14:51:34.731Z,101038.84
2023-01-04T14:54:01.559Z,101036.13
2023-01-04T14:56:28.385Z,101021.59
2023-01-04T14:58:55.363Z,101036.88
2023-01-04T15:01:22.643Z,101028.75
2023-01-04T15:03:49.721Z,101035.88
2023-01-04T15:06:17.697Z,101033.16
2023-01-04T15:08:44.668Z,101030.47
2023-01-04T15:11:15.890Z,101028.75
2023-01-04T15:13:42.699Z,101016.28
2023-01-04T15:16:13.467Z,101015.31
2023-01-04T15:18:41.062Z,101021.69
2023-01-04T15:21:09.532Z,101016.41
2023-01-04T15:23:37.503Z,101013.72
2023-01-04T15:26:10.235Z,101013.72
2023-01-04T15:28:37.890Z,101018.25
2023-01-04T15:31:12.042Z,101020.84
2023-01-04T15:33:39.916Z,101017.16
2023-01-04T15:36:20.027Z,101023.66
2023-01-04T15:38:55.364Z,101021.84
2023-01-04T15:41:40.810Z,101021.59
2023-01-04T15:44:10.049Z,101030.47
2023-01-04T15:46:37.121Z,101028.75
2023-01-04T15:49:04.011Z,101020.38
2023-01-04T15:51:30.888Z,101034.69
2023-01-04T15:53:57.921Z,101028.38
2023-01-04T15:56:26.458Z,101034.69
2023-01-04T15:58:55.122Z,101032.94
2023-01-04T16:01:23.281Z,101017.66
2023-01-04T16:03:53.972Z,101025.78
2023-01-04T16:06:22.402Z,101018.88
2023-01-04T16:08:52.020Z,101021.84
2023-01-04T16:11:23.857Z,101017.59
2023-01-04T16:13:53.474Z,101010.47
2023-01-04T16:16:23.454Z,101014.16
2023-01-04T16:18:53.187Z,101010.69
2023-01-04T16:21:27.110Z,101009.19
2023-01-04T16:24:05.082Z,101007.69
2023-01-04T16:26:33.996Z,100999.78
2023-01-04T16:29:00.937Z,101002.50
2023-01-04T16:31:33.912Z,100993.63
2023-01-04T16:34:00.832Z,100990.91
2023-01-04T16:36:28.079Z,101001.75
2023-01-04T16:38:54.936Z,100996.44
2023-01-04T16:41:23.110Z,101001.75
2023-01-04T16:44:00.955Z,101005.31
2023-01-04T16:46:31.181Z,101017.16
2023-01-04T16:49:02.600Z,101020.72
2023-01-04T16:51:32.502Z,101017.25
2023-01-04T16:54:02.487Z,101031.63
2023-01-04T16:56:29.635Z,101035.44
2023-01-04T16:58:56.457Z,101041.81
2023-01-04T17:01:30.210Z,101042.78
2023-01-04T17:04:02.599Z,101022.88
2023-01-04T17:06:32.472Z,101022.88
2023-01-04T17:09:03.118Z,101019.22
2023-01-04T17:14:20.272Z,101000.38
2023-01-04T17:16:47.867Z,101013.00
2023-01-04T17:19:14.650Z,101025.06
2023-01-04T17:21:42.067Z,101035.22
2023-01-04T17:24:10.607Z,101025.41
2023-01-04T17:26:39.323Z,101030.69
2023-01-04T17:29:06.287Z,101046.91
2023-01-04T17:31:39.836Z,101048.66
2023-01-04T17:34:10.028Z,101037.84
2023-01-04T17:36:38.373Z,101056.69
2023-01-04T17:39:05.326Z,101063.94
2023-01-04T17:41:32.069Z,101051.25
2023-01-04T17:44:03.699Z,101035.03
2023-01-04T17:46:37.158Z,101042.38
2023-01-04T17:49:27.970Z,101055.03
2023-01-04T17:51:55.841Z,101057.00
2023-01-04T17:54:25.517Z,101065.88
2023-01-04T17:56:52.680Z,101064.91
2023-01-04T17:59:19.457Z,101057.00
2023-01-04T18:01:46.403Z,101054.28
2023-01-04T18:04:13.353Z,101048.88
2023-01-04T18:06:40.518Z,101068.81
2023-01-04T18:09:08.961Z,101077.91
2023-01-04T18:11:36.567Z,101081.34
2023-01-04T18:14:06.412Z,101087.88
2023-01-04T18:16:56.120Z,101069.03
2023-01-04T18:19:30.266Z,101088.97
2023-01-04T18:21:58.456Z,101083.56
2023-01-04T18:24:41.705Z,101074.66
2023-01-04T18:27:22.206Z,101067.31
2023-01-04T18:29:51.669Z,101056.47
2023-01-04T18:32:18.679Z,101078.88
2023-01-04T18:34:45.494Z,101062.75
2023-01-04T18:37:12.333Z,101075.28
2023-01-04T18:39:39.153Z,101086.00
2023-01-04T18:42:05.907Z,101100.31
2023-01-04T18:44:34.413Z,101100.09
2023-01-04T18:47:03.377Z,101092.94
2023-01-04T18:49:30.982Z,101092.94
2023-01-04T18:51:57.749Z,101100.19
2023-01-04T18:54:24.968Z,101083.97
2023-01-04T18:56:58.750Z,101090.03
2023-01-04T18:59:30.202Z,101098.88
2023-01-04T19:02:01.572Z,101091.75
2023-01-04T19:04:31.703Z,101092.63
2023-01-04T19:06:58.770Z,101085.34
2023-01-04T19:09:25.756Z,101088.06
2023-01-04T19:11:52.766Z,101104.31
2023-01-04T19:14:19.538Z,101108.00
2023-01-04T19:16:46.505Z,101100.00
2023-01-04T19:19:13.287Z,101101.59
2023-01-04T19:21:40.455Z,101111.47
2023-01-04T19:24:07.548Z,101109.72
2023-01-04T19:26:34.488Z,101106.81
2023-01-04T19:29:01.337Z,101120.53
2023-01-04T19:31:28.293Z,101117.09
2023-01-04T19:33:55.088Z,101115.25
2023-01-04T19:36:22.084Z,101112.53
2023-01-04T19:38:48.898Z,101119.78
2023-01-04T19:41:21.131Z,101120.78
2023-01-04T19:43:48.845Z,101110.72
2023-01-04T19:46:16.834Z,101115.13
2023-01-04T19:48:44.032Z,101118.09
2023-01-04T19:51:15.247Z,101106.25
2023-01-04T19:53:44.414Z,101127.91
2023-01-04T19:56:13.705Z,101128.13
2023-01-04T19:58:40.918Z,101128.13
2023-01-04T20:01:13.011Z,101126.41
2023-01-04T20:03:39.961Z,101128.38
2023-01-04T20:06:07.207Z,101133.88
2023-01-04T20:08:34.697Z,101133.97
2023-01-04T20:11:03.636Z,101130.53
2023-01-04T20:13:35.567Z,101141.34
2023-01-04T20:16:06.542Z,101145.00
2023-01-04T20:18:35.207Z,101135.25
2023-01-04T20:21:02.071Z,101132.66
2023-01-04T20:23:28.891Z,101130.94
2023-01-04T20:25:55.856Z,101131.91
2023-01-04T20:28:24.954Z,101133.00
2023-01-04T20:31:09.111Z,101142.81
2023-01-04T20:33:36.110Z,101158.19
2023-01-04T20:36:15.647Z,101151.94
2023-01-04T20:38:46.646Z,101145.63
2023-01-04T20:41:18.159Z,101141.22
2023-01-04T20:43:47.699Z,101140.22
2023-01-04T20:46:18.701Z,101144.78
2023-01-04T20:48:46.519Z,101139.34
2023-01-04T20:51:18.391Z,101148.22
2023-01-04T20:53:45.760Z,101139.16
2023-01-04T20:56:17.999Z,101120.31
2023-01-04T20:58:46.317Z,101124.22
2023-01-04T21:01:15.296Z,101142.16
2023-01-04T21:03:42.568Z,101165.78
2023-01-04T21:06:14.991Z,101152.34
2023-01-04T21:08:43.720Z,101162.31
2023-01-04T21:11:13.128Z,101159.81
2023-01-04T21:13:40.398Z,101154.53
2023-01-04T21:16:07.838Z,101152.88
2023-01-04T21:18:35.170Z,101156.44
2023-01-04T21:21:14.306Z,101168.81
2023-01-04T21:23:43.438Z,101176.28
2023-01-04T21:26:19.759Z,101173.56
2023-01-04T21:28:47.054Z,101157.44
2023-01-04T21:31:19.143Z,101172.69
2023-01-04T21:34:12.813Z,101186.19
2023-01-04T21:37:01.175Z,101177.97
2023-01-04T21:39:28.068Z,101164.69
2023-01-04T21:41:54.952Z,101178.22
2023-01-04T21:44:21.704Z,101168.34
2023-01-04T21:46:48.550Z,101186.53
2023-01-04T21:49:15.378Z,101172.03
2023-01-04T21:51:42.160Z,101186.63
2023-01-04T21:54:09.093Z,101187.72
2023-01-04T21:56:35.971Z,101193.91
2023-01-04T21:59:02.758Z,101196.50
2023-01-04T22:01:34.483Z,101201.03
2023-01-04T22:04:02.861Z,101192.16
2023-01-04T22:06:29.838Z,101197.56
2023-01-04T22:08:58.586Z,101204.16
2023-01-04T22:11:25.362Z,101203.41
2023-01-04T22:13:52.153Z,101202.63
2023-01-04T22:16:19.101Z,101198.19
2023-01-04T22:18:48.480Z,101198.38
2023-01-04T22:21:19.482Z,101208.44
2023-01-04T22:23:46.516Z,101200.56
2023-01-04T22:26:13.336Z,101215.91
2023-01-04T22:28:40.569Z,101218.06
2023-01-04T22:31:11.094Z,101212.00
2023-01-04T22:33:39.244Z,101220.31
2023-01-04T22:36:22.369Z,101212.38
2023-01-04T22:38:53.024Z,101218.22
2023-01-04T22:41:21.996Z,101231.34
2023-01-04T22:43:59.581Z,101222.88
2023-01-04T22:46:28.687Z,101227.91
2023-01-04T22:48:56.283Z,101236.44
2023-01-04T22:51:25.865Z,101236.84
2023-01-04T22:53:58.527Z,101231.03
2023-01-04T22:56:26.762Z,101237.78
2023-01-04T22:58:56.050Z,101238.19
2023-01-04T23:01:30.586Z,101228.56
2023-01-04T23:03:59.870Z,101247.66
2023-01-04T23:06:29.037Z,101250.44
2023-01-04T23:09:05.242Z,101245.91
2023-01-04T23:11:34.640Z,101242.25
2023-01-04T23:14:04.384Z,101240.72
2023-01-04T23:16:33.140Z,101243.69
2023-01-04T23:19:02.037Z,101240.22
2023-01-04T23:21:30.011Z,101260.09
2023-01-04T23:23:56.904Z,101250.94
2023-01-04T23:26:26.005Z,101250.84
2023-01-04T23:28:52.965Z,101253.44
2023-01-04T23:31:24.249Z,101252.38
2023-01-04T23:33:57.888Z,101266.97
2023-01-04T23:36:35.051Z,101274.16
2023-01-04T23:39:06.854Z,101276.78
2023-01-04T23:41:46.532Z,101270.44
2023-01-04T23:44:32.080Z,101280.25
2023-01-04T23:47:02.095Z,101291.06
2023-01-04T23:49:32.666Z,101285.47
2023-01-04T23:52:01.055Z,101276.41
2023-01-04T23:54:28.883Z,101285.47
2023-01-04T23:56:56.444Z,101280.84
2023-01-04T23:59:25.580Z,101278.13
